createdAt,value
2022-09-09T00:02:13.288Z,20.91
2022-09-09T00:04:42.805Z,20.94
2022-09-09T00:07:51.730Z,20.90
2022-09-09T00:10:25.240Z,20.95
2022-09-09T00:13:30.243Z,20.96
2022-09-09T00:16:21.015Z,20.98
2022-09-09T00:19:19.536Z,20.96
2022-09-09T00:22:05.289Z,20.94
2022-09-09T00:24:55.714Z,20.93
2022-09-09T00:27:29.125Z,20.94
2022-09-09T00:30:23.505Z,20.97
2022-09-09T00:33:05.238Z,20.95
2022-09-09T00:35:39.319Z,20.99
2022-09-09T00:38:28.762Z,20.94
2022-09-09T00:41:15.002Z,20.91
2022-09-09T00:43:43.543Z,20.90
2022-09-09T00:46:51.235Z,20.92
2022-09-09T00:49:47.561Z,20.94
2022-09-09T00:52:46.829Z,20.95
2022-09-09T00:55:22.746Z,20.95
2022-09-09T00:57:53.697Z,20.94
2022-09-09T01:00:52.252Z,20.94
2022-09-09T01:03:38.222Z,21.02
2022-09-09T01:06:27.807Z,21.00
2022-09-09T01:09:28.817Z,20.99
2022-09-09T01:12:25.533Z,20.96
2022-09-09T01:15:31.433Z,20.95
2022-09-09T01:18:14.920Z,20.96
2022-09-09T01:21:07.435Z,20.92
2022-09-09T01:23:43.810Z,20.90
2022-09-09T01:26:40.403Z,20.99
2022-09-09T01:29:19.505Z,20.92
2022-09-09T01:31:57.859Z,20.88
2022-09-09T01:34:37.558Z,20.83
2022-09-09T01:37:10.168Z,20.83
2022-09-09T01:39:40.389Z,20.95
2022-09-09T01:42:17.057Z,20.95
2022-09-09T01:44:45.828Z,20.92
2022-09-09T01:47:15.762Z,20.91
2022-09-09T01:50:04.868Z,20.92
2022-09-09T01:52:41.620Z,20.93
2022-09-09T01:55:13.460Z,20.90
2022-09-09T01:58:05.282Z,20.87
2022-09-09T02:00:38.282Z,20.78
2022-09-09T02:03:30.497Z,20.59
2022-09-09T02:06:21.173Z,20.56
2022-09-09T02:08:57.214Z,20.58
2022-09-09T02:11:28.954Z,20.65
2022-09-09T02:14:17.557Z,20.42
2022-09-09T02:17:02.889Z,20.47
2022-09-09T02:19:57.149Z,20.46
2022-09-09T02:22:40.499Z,20.32
2022-09-09T02:25:12.994Z,20.26
2022-09-09T02:27:44.646Z,20.29
2022-09-09T02:30:13.522Z,20.25
2022-09-09T02:32:53.923Z,20.22
2022-09-09T02:35:27.579Z,20.22
2022-09-09T02:38:00.534Z,20.24
2022-09-09T02:40:28.792Z,20.25
2022-09-09T02:43:01.750Z,20.25
2022-09-09T02:45:50.595Z,20.30
2022-09-09T02:48:47.205Z,20.33
2022-09-09T02:51:44.391Z,20.32
2022-09-09T02:54:33.150Z,20.32
2022-09-09T02:57:12.355Z,20.31
2022-09-09T02:59:42.584Z,20.20
2022-09-09T03:02:12.426Z,20.14
2022-09-09T03:04:45.402Z,20.10
2022-09-09T03:07:14.487Z,20.14
2022-09-09T03:09:43.510Z,20.04
2022-09-09T03:12:12.539Z,19.99
2022-09-09T03:14:41.409Z,19.97
2022-09-09T03:17:10.226Z,19.91
2022-09-09T03:19:45.163Z,19.85
2022-09-09T03:22:14.329Z,19.79
2022-09-09T03:24:43.904Z,19.78
2022-09-09T03:27:11.670Z,19.73
2022-09-09T03:29:40.400Z,19.65
2022-09-09T03:32:13.782Z,19.60
2022-09-09T03:34:41.777Z,19.54
2022-09-09T03:37:12.857Z,19.48
2022-09-09T03:39:41.193Z,19.48
2022-09-09T03:42:13.462Z,19.50
2022-09-09T03:44:43.032Z,19.52
2022-09-09T03:47:11.041Z,19.44
2022-09-09T03:49:39.251Z,19.40
2022-09-09T03:52:09.121Z,19.41
2022-09-09T03:54:36.970Z,19.39
2022-09-09T03:57:05.825Z,19.39
2022-09-09T03:59:33.705Z,19.38
2022-09-09T04:02:02.089Z,19.43
2022-09-09T04:04:30.017Z,19.44
2022-09-09T04:06:58.200Z,19.43
2022-09-09T04:09:25.999Z,19.42
2022-09-09T04:11:54.244Z,19.43
2022-09-09T04:14:23.138Z,19.42
2022-09-09T04:16:50.946Z,19.44
2022-09-09T04:19:18.818Z,19.48
2022-09-09T04:21:52.663Z,19.45
2022-09-09T04:24:23.141Z,19.54
2022-09-09T04:26:51.618Z,19.55
2022-09-09T04:29:19.511Z,19.59
2022-09-09T04:31:47.287Z,19.63
2022-09-09T04:34:15.149Z,19.63
2022-09-09T04:36:42.909Z,19.66
2022-09-09T04:39:11.055Z,19.67
2022-09-09T04:41:40.107Z,19.70
2022-09-09T04:44:07.876Z,19.68
2022-09-09T04:46:35.775Z,19.68
2022-09-09T04:49:03.605Z,19.66
2022-09-09T04:51:34.637Z,19.71
2022-09-09T04:54:03.288Z,19.74
2022-09-09T04:56:32.102Z,19.73
2022-09-09T04:59:03.913Z,19.73
2022-09-09T05:01:39.345Z,19.71
2022-09-09T05:04:07.271Z,19.66
2022-09-09T05:06:37.265Z,19.59
2022-09-09T05:09:06.131Z,19.54
2022-09-09T05:11:37.047Z,19.50
2022-09-09T05:14:12.492Z,19.52
2022-09-09T05:16:40.479Z,19.55
2022-09-09T05:19:10.150Z,19.56
2022-09-09T05:21:55.907Z,19.63
2022-09-09T05:24:29.547Z,19.65
2022-09-09T05:27:00.842Z,19.62
2022-09-09T05:29:29.329Z,19.64
2022-09-09T05:31:58.241Z,19.68
2022-09-09T05:34:26.374Z,19.70
2022-09-09T05:36:54.775Z,19.70
2022-09-09T05:39:24.401Z,19.71
2022-09-09T05:41:52.855Z,19.74
2022-09-09T05:44:21.203Z,19.77
2022-09-09T05:46:48.990Z,19.82
2022-09-09T05:49:17.262Z,19.82
2022-09-09T05:51:46.055Z,19.85
2022-09-09T05:54:16.598Z,19.89
2022-09-09T05:56:51.816Z,19.87
2022-09-09T05:59:20.960Z,19.90
2022-09-09T06:01:48.827Z,19.89
2022-09-09T06:04:25.905Z,19.94
2022-09-09T06:06:54.386Z,19.99
2022-09-09T06:09:23.953Z,20.00
2022-09-09T06:11:51.799Z,19.98
2022-09-09T06:14:21.532Z,19.96
2022-09-09T06:16:50.594Z,20.05
2022-09-09T06:19:22.876Z,20.12
2022-09-09T06:21:51.295Z,20.11
2022-09-09T06:24:20.557Z,20.14
2022-09-09T06:26:48.381Z,20.12
2022-09-09T06:29:23.763Z,20.11
2022-09-09T06:31:52.894Z,20.10
2022-09-09T06:34:25.570Z,20.10
2022-09-09T06:36:59.403Z,20.08
2022-09-09T06:39:32.232Z,20.05
2022-09-09T06:42:00.264Z,20.05
2022-09-09T06:44:46.367Z,20.13
2022-09-09T06:47:20.984Z,20.17
2022-09-09T06:49:49.276Z,20.22
2022-09-09T06:52:19.266Z,20.33
2022-09-09T06:54:47.868Z,20.36
2022-09-09T07:00:07.386Z,20.45
2022-09-09T07:02:40.086Z,20.54
2022-09-09T07:05:09.460Z,20.60
2022-09-09T07:07:37.840Z,20.67
2022-09-09T07:10:06.936Z,20.59
2022-09-09T07:12:36.300Z,20.63
2022-09-09T07:15:04.964Z,20.60
2022-09-09T07:17:32.758Z,20.65
2022-09-09T07:20:02.990Z,20.67
2022-09-09T07:22:31.162Z,20.63
2022-09-09T07:24:59.012Z,20.67
2022-09-09T07:27:27.805Z,20.67
2022-09-09T07:29:55.654Z,20.67
2022-09-09T07:32:23.715Z,20.76
2022-09-09T07:34:51.632Z,20.80
2022-09-09T07:37:20.094Z,20.77
2022-09-09T07:39:49.252Z,20.88
2022-09-09T07:42:18.631Z,20.99
2022-09-09T07:44:46.614Z,21.10
2022-09-09T07:47:17.065Z,21.23
2022-09-09T07:49:50.782Z,21.36
2022-09-09T07:52:23.423Z,21.46
2022-09-09T07:54:55.425Z,21.56
2022-09-09T07:57:23.211Z,21.53
2022-09-09T07:59:53.238Z,21.47
2022-09-09T08:02:21.509Z,21.43
2022-09-09T08:04:49.301Z,21.46
2022-09-09T08:07:19.187Z,21.47
2022-09-09T08:09:52.563Z,21.47
2022-09-09T08:12:27.482Z,21.41
2022-09-09T08:14:55.748Z,21.45
2022-09-09T08:17:26.131Z,21.49
2022-09-09T08:19:55.205Z,21.54
2022-09-09T08:22:27.281Z,21.69
2022-09-09T08:24:56.180Z,21.72
2022-09-09T08:27:25.300Z,21.73
2022-09-09T08:29:54.395Z,21.75
2022-09-09T08:32:22.176Z,21.72
2022-09-09T08:34:54.551Z,21.80
2022-09-09T08:37:24.529Z,21.95
2022-09-09T08:39:54.292Z,21.97
2022-09-09T08:42:50.620Z,21.96
2022-09-09T08:45:35.924Z,22.06
2022-09-09T08:48:53.430Z,21.97
2022-09-09T08:51:21.772Z,22.03
2022-09-09T08:53:55.383Z,22.06
2022-09-09T08:56:28.230Z,21.89
2022-09-09T08:59:03.747Z,22.00
2022-09-09T09:01:52.004Z,22.02
2022-09-09T09:05:00.182Z,22.03
2022-09-09T09:07:59.390Z,22.12
2022-09-09T09:10:52.121Z,22.16
2022-09-09T09:13:32.463Z,22.30
2022-09-09T09:16:39.866Z,22.41
2022-09-09T09:19:16.642Z,22.55
2022-09-09T09:22:30.282Z,22.45
2022-09-09T09:25:09.330Z,22.68
2022-09-09T09:28:01.744Z,22.68
2022-09-09T09:30:42.780Z,22.73
2022-09-09T09:33:34.114Z,22.76
2022-09-09T09:36:03.869Z,22.76
2022-09-09T09:41:39.677Z,22.87
2022-09-09T09:44:29.573Z,22.90
2022-09-09T09:47:22.680Z,23.15
2022-09-09T09:50:03.356Z,23.12
2022-09-09T09:52:37.851Z,23.23
2022-09-09T09:55:15.537Z,23.27
2022-09-09T09:57:45.777Z,23.53
2022-09-09T10:00:24.187Z,23.65
2022-09-09T10:03:16.612Z,23.66
2022-09-09T10:05:48.022Z,23.08
2022-09-09T10:08:18.977Z,22.77
2022-09-09T10:11:15.115Z,22.52
2022-09-09T10:14:04.848Z,22.20
2022-09-09T10:17:23.857Z,21.86
2022-09-09T10:20:34.733Z,22.06
2022-09-09T10:23:45.253Z,21.94
2022-09-09T10:26:56.373Z,21.77
2022-09-09T10:29:30.279Z,22.15
2022-09-09T10:32:10.861Z,22.08
2022-09-09T10:35:09.751Z,21.92
2022-09-09T10:38:13.079Z,21.96
2022-09-09T10:41:21.387Z,22.17
2022-09-09T10:44:00.427Z,22.19
2022-09-09T10:47:11.431Z,22.02
2022-09-09T10:50:07.948Z,22.00
2022-09-09T10:52:53.202Z,22.15
2022-09-09T10:55:40.498Z,21.92
2022-09-09T10:58:52.416Z,22.10
2022-09-09T11:01:38.200Z,22.31
2022-09-09T11:04:41.938Z,22.25
2022-09-09T11:07:15.561Z,22.44
2022-09-09T11:09:54.129Z,22.51
2022-09-09T11:12:27.723Z,22.33
2022-09-09T11:15:22.250Z,22.07
2022-09-09T11:18:01.809Z,21.92
2022-09-09T11:20:29.725Z,21.80
2022-09-09T11:23:01.447Z,21.82
2022-09-09T11:25:41.646Z,21.85
2022-09-09T11:28:37.583Z,21.53
2022-09-09T11:31:09.101Z,21.70
2022-09-09T11:34:07.163Z,21.31
2022-09-09T11:37:18.395Z,21.47
2022-09-09T11:39:58.612Z,21.52
2022-09-09T11:42:26.966Z,21.52
2022-09-09T11:44:56.102Z,21.49
2022-09-09T11:47:30.638Z,21.68
2022-09-09T11:50:16.643Z,21.78
2022-09-09T11:52:50.493Z,21.74
2022-09-09T11:55:37.863Z,22.05
2022-09-09T11:58:12.647Z,22.28
2022-09-09T12:00:45.462Z,22.44
2022-09-09T12:03:43.235Z,22.57
2022-09-09T12:07:04.923Z,22.49
2022-09-09T12:10:01.894Z,22.50
2022-09-09T12:12:32.762Z,22.68
2022-09-09T12:15:09.456Z,22.51
2022-09-09T12:17:47.628Z,22.68
2022-09-09T12:20:50.435Z,22.73
2022-09-09T12:23:27.885Z,22.81
2022-09-09T12:26:33.864Z,22.93
2022-09-09T12:29:16.224Z,22.75
2022-09-09T12:32:07.154Z,22.66
2022-09-09T12:34:54.792Z,22.69
2022-09-09T12:37:41.081Z,22.63
2022-09-09T12:40:29.719Z,22.94
2022-09-09T12:42:57.504Z,23.25
2022-09-09T12:45:29.633Z,23.47
2022-09-09T12:48:05.903Z,23.73
2022-09-09T12:50:39.157Z,23.81
2022-09-09T12:53:21.173Z,23.95
2022-09-09T12:55:58.176Z,23.85
2022-09-09T12:58:27.158Z,23.94
2022-09-09T13:00:58.411Z,23.98
2022-09-09T13:03:27.151Z,23.98
2022-09-09T13:06:18.572Z,24.35
2022-09-09T13:08:46.427Z,24.17
2022-09-09T13:11:37.285Z,24.38
2022-09-09T13:14:05.641Z,24.47
2022-09-09T13:16:42.094Z,24.49
2022-09-09T13:19:16.955Z,24.59
2022-09-09T13:21:44.970Z,24.53
2022-09-09T13:24:43.715Z,24.17
2022-09-09T13:27:43.348Z,23.86
2022-09-09T13:30:30.357Z,23.73
2022-09-09T13:33:23.572Z,23.71
2022-09-09T13:36:03.882Z,24.07
2022-09-09T13:38:37.657Z,24.25
2022-09-09T13:41:09.641Z,24.37
2022-09-09T13:43:56.428Z,24.47
2022-09-09T13:46:41.585Z,24.63
2022-09-09T13:49:12.287Z,24.61
2022-09-09T13:51:51.584Z,24.67
2022-09-09T13:54:21.969Z,24.73
2022-09-09T13:56:50.767Z,24.96
2022-09-09T13:59:20.992Z,24.85
2022-09-09T14:01:50.281Z,24.99
2022-09-09T14:04:19.068Z,25.10
2022-09-09T14:06:46.822Z,25.30
2022-09-09T14:09:17.379Z,25.48
2022-09-09T14:11:49.432Z,25.78
2022-09-09T14:14:17.240Z,25.49
2022-09-09T14:16:45.466Z,25.66
2022-09-09T14:19:13.265Z,25.98
2022-09-09T14:21:41.041Z,25.82
2022-09-09T14:24:08.782Z,25.84
2022-09-09T14:26:36.549Z,25.94
2022-09-09T14:29:04.271Z,26.01
2022-09-09T14:31:31.974Z,26.09
2022-09-09T14:34:00.058Z,25.91
2022-09-09T14:36:27.854Z,25.79
2022-09-09T14:38:55.650Z,25.91
2022-09-09T14:41:26.656Z,25.57
2022-09-09T14:43:54.997Z,25.79
2022-09-09T14:46:23.203Z,26.06
2022-09-09T14:48:51.189Z,25.82
2022-09-09T14:51:23.861Z,25.08
2022-09-09T14:53:57.673Z,25.08
2022-09-09T14:56:32.572Z,24.62
2022-09-09T14:59:03.589Z,24.30
2022-09-09T15:01:33.227Z,24.45
2022-09-09T15:04:04.561Z,24.74
2022-09-09T15:06:36.833Z,25.02
2022-09-09T15:09:04.777Z,24.99
2022-09-09T15:11:38.809Z,25.10
2022-09-09T15:14:09.074Z,25.22
2022-09-09T15:16:37.518Z,25.25
2022-09-09T15:19:05.738Z,25.39
2022-09-09T15:21:36.302Z,25.48
2022-09-09T15:24:05.609Z,25.59
2022-09-09T15:26:33.383Z,25.19
2022-09-09T15:29:01.600Z,24.99
2022-09-09T15:31:32.849Z,24.95
2022-09-09T15:34:04.820Z,24.93
2022-09-09T15:36:52.543Z,24.59
2022-09-09T15:39:20.641Z,24.49
2022-09-09T15:41:49.635Z,24.59
2022-09-09T15:44:17.823Z,24.62
2022-09-09T15:46:52.411Z,24.45
2022-09-09T15:49:28.230Z,24.34
2022-09-09T15:51:59.301Z,24.17
2022-09-09T15:54:27.582Z,24.08
2022-09-09T15:57:01.870Z,24.25
2022-09-09T15:59:32.211Z,24.26
2022-09-09T16:02:01.187Z,24.22
2022-09-09T16:04:30.569Z,24.15
2022-09-09T16:07:04.052Z,23.37
2022-09-09T16:09:33.549Z,22.10
2022-09-09T16:12:03.460Z,21.96
2022-09-09T16:14:35.147Z,21.31
2022-09-09T16:17:04.831Z,20.66
2022-09-09T16:19:33.686Z,20.44
2022-09-09T16:22:02.023Z,20.10
2022-09-09T16:24:29.958Z,19.97
2022-09-09T16:26:58.968Z,20.14
2022-09-09T16:29:28.345Z,19.61
2022-09-09T16:32:01.264Z,19.84
2022-09-09T16:34:31.488Z,19.93
2022-09-09T16:36:59.301Z,20.01
2022-09-09T16:39:27.098Z,20.15
2022-09-09T16:41:55.004Z,20.16
2022-09-09T16:44:22.929Z,20.20
2022-09-09T16:46:58.101Z,20.10
2022-09-09T16:49:29.368Z,20.05
2022-09-09T16:52:00.314Z,20.09
2022-09-09T16:54:29.622Z,20.18
2022-09-09T16:56:58.512Z,20.20
2022-09-09T16:59:27.463Z,20.16
2022-09-09T17:01:55.671Z,20.17
2022-09-09T17:04:28.889Z,20.24
2022-09-09T17:06:58.473Z,20.30
2022-09-09T17:09:30.208Z,20.32
2022-09-09T17:11:59.491Z,20.27
2022-09-09T17:14:27.764Z,20.27
2022-09-09T17:16:55.506Z,20.21
2022-09-09T17:19:23.232Z,20.24
2022-09-09T17:22:15.058Z,20.22
2022-09-09T17:24:39.576Z,20.24
2022-09-09T17:27:08.114Z,20.27
2022-09-09T17:29:36.974Z,20.24
2022-09-09T17:32:06.482Z,20.12
2022-09-09T17:34:35.550Z,20.11
2022-09-09T17:37:04.067Z,20.03
2022-09-09T17:39:31.919Z,20.03
2022-09-09T17:41:59.714Z,20.01
2022-09-09T17:44:27.585Z,19.96
2022-09-09T17:46:57.074Z,19.93
2022-09-09T17:49:24.789Z,19.95
2022-09-09T17:51:52.932Z,19.93
2022-09-09T17:54:21.638Z,19.95
2022-09-09T17:56:49.942Z,20.00
2022-09-09T17:59:18.976Z,19.98
2022-09-09T18:01:52.989Z,20.02
2022-09-09T18:04:20.999Z,20.06
2022-09-09T18:06:51.827Z,19.95
2022-09-09T18:09:24.861Z,19.99
2022-09-09T18:11:57.062Z,19.96
2022-09-09T18:14:31.154Z,19.96
2022-09-09T18:17:02.088Z,19.99
2022-09-09T18:19:32.881Z,20.01
2022-09-09T18:22:02.681Z,19.99
2022-09-09T18:24:31.253Z,19.99
2022-09-09T18:26:59.379Z,19.96
2022-09-09T18:29:27.199Z,19.95
2022-09-09T18:31:56.266Z,19.90
2022-09-09T18:34:25.720Z,19.86
2022-09-09T18:36:55.993Z,19.80
2022-09-09T18:39:29.391Z,19.75
2022-09-09T18:42:00.447Z,19.86
2022-09-09T18:44:33.476Z,19.88
2022-09-09T18:47:03.659Z,19.83
2022-09-09T18:49:33.351Z,19.77
2022-09-09T18:52:02.819Z,19.77
2022-09-09T18:54:33.341Z,19.76
2022-09-09T18:57:01.670Z,19.78
2022-09-09T18:59:30.706Z,19.78
2022-09-09T19:01:58.558Z,19.74
2022-09-09T19:04:27.518Z,19.76
2022-09-09T19:06:59.754Z,19.80
2022-09-09T19:09:31.831Z,19.80
2022-09-09T19:12:01.299Z,19.83
2022-09-09T19:14:29.605Z,19.84
2022-09-09T19:16:57.836Z,19.83
2022-09-09T19:19:30.616Z,19.76
2022-09-09T19:21:59.548Z,19.64
2022-09-09T19:24:33.372Z,19.69
2022-09-09T19:27:06.798Z,19.58
2022-09-09T19:29:37.598Z,19.62
2022-09-09T19:34:53.734Z,19.67
2022-09-09T19:37:22.521Z,19.65
2022-09-09T19:39:50.809Z,19.71
2022-09-09T19:42:18.969Z,19.71
2022-09-09T19:44:46.747Z,19.73
2022-09-09T19:47:15.149Z,19.72
2022-09-09T19:49:46.912Z,19.73
2022-09-09T19:52:17.248Z,19.76
2022-09-09T19:54:46.734Z,19.75
2022-09-09T19:57:14.780Z,19.70
2022-09-09T19:59:42.697Z,19.70
2022-09-09T20:02:15.728Z,19.73
2022-09-09T20:04:44.589Z,19.72
2022-09-09T20:07:12.896Z,19.68
2022-09-09T20:09:40.662Z,19.66
2022-09-09T20:12:10.161Z,19.67
2022-09-09T20:14:39.762Z,19.68
2022-09-09T20:17:08.636Z,19.65
2022-09-09T20:19:36.433Z,19.64
2022-09-09T20:22:04.490Z,19.62
2022-09-09T20:24:32.204Z,19.65
2022-09-09T20:26:59.944Z,19.64
2022-09-09T20:29:27.700Z,19.64
2022-09-09T20:31:55.417Z,19.68
2022-09-09T20:34:25.825Z,19.70
2022-09-09T20:36:54.707Z,19.68
2022-09-09T20:39:22.520Z,19.69
2022-09-09T20:41:51.383Z,19.74
2022-09-09T20:44:24.334Z,19.76
2022-09-09T20:46:57.972Z,19.79
2022-09-09T20:49:25.712Z,19.90
2022-09-09T20:51:54.226Z,19.84
2022-09-09T20:54:25.125Z,19.82
2022-09-09T20:56:55.400Z,19.77
2022-09-09T20:59:29.042Z,19.64
2022-09-09T21:01:58.083Z,19.59
2022-09-09T21:04:26.183Z,19.54
2022-09-09T21:06:54.428Z,19.44
2022-09-09T21:09:25.000Z,19.37
2022-09-09T21:11:53.741Z,19.35
2022-09-09T21:14:22.253Z,19.32
2022-09-09T21:16:50.311Z,19.33
2022-09-09T21:19:18.038Z,19.28
2022-09-09T21:21:47.929Z,19.24
2022-09-09T21:24:16.044Z,19.24
2022-09-09T21:26:43.834Z,19.23
2022-09-09T21:29:13.128Z,19.22
2022-09-09T21:31:41.130Z,19.20
2022-09-09T21:34:09.861Z,19.19
2022-09-09T21:36:37.649Z,19.18
2022-09-09T21:39:05.398Z,19.14
2022-09-09T21:41:33.135Z,19.12
2022-09-09T21:44:00.870Z,19.12
2022-09-09T21:46:29.403Z,19.14
2022-09-09T21:48:58.637Z,19.15
2022-09-09T21:51:26.408Z,19.18
2022-09-09T21:53:57.584Z,19.15
2022-09-09T21:56:26.891Z,19.13
2022-09-09T21:59:03.765Z,19.11
2022-09-09T22:01:35.309Z,19.11
2022-09-09T22:04:03.723Z,19.11
2022-09-09T22:06:31.515Z,19.13
2022-09-09T22:08:59.467Z,19.16
2022-09-09T22:11:28.158Z,19.16
2022-09-09T22:13:56.008Z,19.18
2022-09-09T22:16:24.222Z,19.19
2022-09-09T22:18:56.823Z,19.20
2022-09-09T22:21:27.204Z,19.23
2022-09-09T22:23:58.911Z,19.24
2022-09-09T22:26:29.889Z,19.28
2022-09-09T22:28:57.992Z,19.33
2022-09-09T22:31:27.170Z,19.35
2022-09-09T22:33:55.291Z,19.28
2022-09-09T22:36:23.935Z,19.02
2022-09-09T22:38:53.362Z,18.92
2022-09-09T22:41:21.122Z,18.59
2022-09-09T22:43:49.099Z,18.66
2022-09-09T22:46:18.799Z,18.65
2022-09-09T22:48:47.254Z,18.64
2022-09-09T22:51:16.281Z,18.64
2022-09-09T22:53:45.577Z,18.62
2022-09-09T22:56:18.367Z,18.62
2022-09-09T22:58:47.389Z,18.57
2022-09-09T23:01:19.405Z,18.60
2022-09-09T23:03:49.487Z,18.60
2022-09-09T23:06:22.508Z,18.59
2022-09-09T23:08:57.198Z,18.63
2022-09-09T23:11:31.812Z,18.62
2022-09-09T23:14:02.779Z,18.56
2022-09-09T23:16:40.557Z,18.52
2022-09-09T23:19:15.994Z,18.52
2022-09-09T23:21:46.274Z,18.44
2022-09-09T23:24:16.444Z,18.50
2022-09-09T23:26:45.688Z,18.41
2022-09-09T23:29:14.740Z,18.46
2022-09-09T23:31:45.256Z,18.48
2022-09-09T23:34:13.933Z,18.45
2022-09-09T23:36:41.861Z,18.44
2022-09-09T23:39:11.801Z,18.44
2022-09-09T23:41:40.374Z,18.45
2022-09-09T23:44:08.724Z,18.50
2022-09-09T23:46:36.670Z,18.56
2022-09-09T23:49:05.011Z,18.57
2022-09-09T23:51:34.906Z,18.60
2022-09-09T23:54:04.966Z,18.62
2022-09-09T23:56:40.514Z,18.59
2022-09-09T23:59:09.271Z,18.57
